Time;durP1;ratioP1;P1;durP2;ratioP2;P2;SDS_P1;SDS_P2;PMS_P1;PMS_P2;Temp;Humidity;BMP_temperature;BMP_pressure;BME280_temperature;BME280_humidity;BME280_pressure;Samples;Min_cycle;Max_cycle;Signal;HPM_P1;HPM_P2
2023/03/03 00:00:53;;;;;;;105.38;41.80;;;;;;;;;;6270779;28;20530;-57
2023/03/03 00:03:54;;;;;;;92.65;37.28;;;;;;;;;;6268645;28;20491;-53
2023/03/03 00:06:54;;;;;;;109.78;44.33;;;;;;;;;;6277785;28;20044;-54
2023/03/03 00:09:55;;;;;;;107.40;43.97;;;;;;;;;;6270377;28;20665;-53
2023/03/03 00:12:55;;;;;;;120.95;48.08;;;;;;;;;;6266511;28;20049;-60
2023/03/03 00:16:12;;;;;;;91.82;38.08;;;;;;;;;;6267325;28;20151;-61
2023/03/03 00:19:17;;;;;;;93.18;38.28;;;;;;;;;;6272512;28;20048;-50
2023/03/03 00:22:35;;;;;;;97.30;38.72;;;;;;;;;;6270607;28;20051;-58
2023/03/03 00:25:35;;;;;;;89.38;36.38;;;;;;;;;;6282637;28;20052;-52
2023/03/03 00:28:45;;;;;;;94.28;37.90;;;;;;;;;;6282430;28;20045;-60
2023/03/03 00:31:46;;;;;;;87.47;39.38;;;;;;;;;;6275759;28;20048;-54
2023/03/03 00:34:47;;;;;;;97.32;38.22;;;;;;;;;;6290967;28;20052;-58
2023/03/03 00:37:52;;;;;;;95.07;38.28;;;;;;;;;;6272190;28;20045;-59
2023/03/03 00:40:53;;;;;;;93.00;38.35;;;;;;;;;;6269445;28;20075;-59
2023/03/03 00:43:54;;;;;;;97.43;39.05;;;;;;;;;;6271022;28;20041;-54
2023/03/03 00:46:55;;;;;;;92.90;38.72;;;;;;;;;;6275766;28;20056;-54
2023/03/03 00:50:36;;;;;;;91.72;37.20;;;;;;;;;;6285698;28;20045;-52
2023/03/03 00:53:36;;;;;;;81.95;35.00;;;;;;;;;;6286790;28;20051;-55
2023/03/03 00:56:37;;;;;;;84.07;34.53;;;;;;;;;;6289145;28;20398;-52
2023/03/03 00:59:38;;;;;;;78.93;33.08;;;;;;;;;;6274919;28;20503;-59
2023/03/03 01:02:39;;;;;;;78.57;32.58;;;;;;;;;;6275993;28;20053;-54
2023/03/03 01:05:40;;;;;;;73.70;32.20;;;;;;;;;;6271605;28;20148;-59
2023/03/03 01:08:41;;;;;;;79.50;33.78;;;;;;;;;;6276188;28;20063;-53
2023/03/03 01:11:41;;;;;;;84.38;35.28;;;;;;;;;;6271847;28;20400;-59
2023/03/03 01:14:44;;;;;;;94.82;37.70;;;;;;;;;;6285262;28;20052;-57
2023/03/03 01:17:44;;;;;;;96.45;38.65;;;;;;;;;;6271766;28;20513;-60
2023/03/03 01:20:45;;;;;;;95.97;40.28;;;;;;;;;;6272012;28;20041;-50
2023/03/03 01:23:46;;;;;;;91.80;36.45;;;;;;;;;;6272022;28;20052;-51
2023/03/03 01:26:46;;;;;;;91.88;39.05;;;;;;;;;;6274211;28;20057;-53
2023/03/03 01:29:47;;;;;;;89.97;38.90;;;;;;;;;;6273030;28;20185;-57
2023/03/03 01:32:47;;;;;;;94.90;39.95;;;;;;;;;;6268454;28;20049;-53
2023/03/03 01:35:48;;;;;;;87.20;37.60;;;;;;;;;;6289701;28;20067;-51
2023/03/03 01:38:49;;;;;;;91.13;37.22;;;;;;;;;;6286111;28;20072;-60
2023/03/03 01:41:49;;;;;;;90.32;37.25;;;;;;;;;;6290562;28;20056;-54
2023/03/03 01:45:08;;;;;;;85.72;36.75;;;;;;;;;;6270630;28;20041;-53
2023/03/03 01:48:15;;;;;;;89.50;36.42;;;;;;;;;;6274319;28;20048;-52
2023/03/03 01:51:27;;;;;;;88.03;35.95;;;;;;;;;;6274980;28;20048;-54
2023/03/03 01:54:40;;;;;;;88.30;35.58;;;;;;;;;;6271363;28;20045;-56
2023/03/03 01:57:42;;;;;;;;;;;;;;;;;;6288694;28;20048;-51
2023/03/03 02:00:49;;;;;;;85.60;34.28;;;;;;;;;;6284155;28;19921;-53
2023/03/03 02:03:52;;;;;;;84.15;34.08;;;;;;;;;;6271581;28;20052;-52
2023/03/03 02:06:58;;;;;;;89.15;36.50;;;;;;;;;;6271384;28;20049;-52
2023/03/03 02:10:03;;;;;;;87.00;34.40;;;;;;;;;;6274243;28;20102;-51
2023/03/03 02:13:04;;;;;;;92.18;37.70;;;;;;;;;;6274319;28;20109;-57
2023/03/03 02:16:05;;;;;;;89.65;36.38;;;;;;;;;;6272070;28;20479;-54
2023/03/03 02:19:17;;;;;;;91.75;36.95;;;;;;;;;;6274370;28;20052;-53
2023/03/03 02:22:28;;;;;;;89.73;37.17;;;;;;;;;;6270107;28;20145;-49
2023/03/03 02:25:56;;;;;;;93.30;38.17;;;;;;;;;;6269012;28;20041;-57
2023/03/03 02:28:57;;;;;;;91.47;36.95;;;;;;;;;;6270906;28;20060;-54
2023/03/03 02:31:58;;;;;;;90.53;37.20;;;;;;;;;;6269879;28;20136;-56
2023/03/03 02:34:58;;;;;;;92.07;37.65;;;;;;;;;;6270880;28;20052;-51
2023/03/03 02:38:03;;;;;;;95.18;37.78;;;;;;;;;;6268033;28;20081;-57
2023/03/03 02:41:30;;;;;;;90.75;35.67;;;;;;;;;;6270234;28;20041;-57
2023/03/03 02:44:32;;;;;;;93.57;36.83;;;;;;;;;;6272148;28;20688;-53
2023/03/03 02:47:32;;;;;;;86.85;34.95;;;;;;;;;;6269101;28;20055;-56
2023/03/03 02:50:33;;;;;;;85.72;36.97;;;;;;;;;;6268645;28;20064;-57
2023/03/03 02:53:34;;;;;;;97.85;40.92;;;;;;;;;;6272410;28;20048;-54
2023/03/03 02:56:34;;;;;;;104.53;44.05;;;;;;;;;;6270740;28;20037;-56
2023/03/03 02:59:35;;;;;;;119.25;49.97;;;;;;;;;;6269385;28;20045;-55
2023/03/03 03:02:36;;;;;;;103.60;44.60;;;;;;;;;;6271773;28;20064;-51
2023/03/03 03:05:36;;;;;;;117.63;48.08;;;;;;;;;;6272967;28;20053;-57
2023/03/03 03:08:37;;;;;;;121.10;49.40;;;;;;;;;;6269777;28;20037;-53
2023/03/03 03:11:38;;;;;;;119.78;48.75;;;;;;;;;;6270537;28;20041;-54
2023/03/03 03:14:38;;;;;;;121.25;49.15;;;;;;;;;;6272039;28;20052;-52
2023/03/03 03:17:39;;;;;;;111.32;47.17;;;;;;;;;;6271341;28;20045;-52
2023/03/03 03:20:40;;;;;;;122.97;47.13;;;;;;;;;;6271265;28;20075;-53
2023/03/03 03:23:41;;;;;;;117.13;47.00;;;;;;;;;;6271653;28;20048;-56
2023/03/03 03:26:42;;;;;;;116.50;47.67;;;;;;;;;;6268201;28;20127;-56
2023/03/03 03:29:42;;;;;;;110.63;45.97;;;;;;;;;;6268054;28;20476;-54
2023/03/03 03:32:44;;;;;;;108.15;46.20;;;;;;;;;;6271647;28;20041;-54
2023/03/03 03:35:46;;;;;;;114.88;45.22;;;;;;;;;;6268925;28;20045;-53
2023/03/03 03:38:47;;;;;;;108.00;44.78;;;;;;;;;;6266972;28;21020;-60
2023/03/03 03:41:47;;;;;;;113.72;44.83;;;;;;;;;;6269354;28;20063;-58
2023/03/03 03:44:49;;;;;;;112.88;44.70;;;;;;;;;;6267093;28;20061;-53
2023/03/03 03:47:50;;;;;;;108.85;44.70;;;;;;;;;;6267294;28;20168;-54
2023/03/03 03:50:51;;;;;;;107.35;44.90;;;;;;;;;;6269055;28;20545;-53
2023/03/03 03:53:51;;;;;;;112.00;44.70;;;;;;;;;;6271201;28;20045;-53
2023/03/03 03:56:53;;;;;;;110.32;45.75;;;;;;;;;;6269157;28;20045;-55
2023/03/03 03:59:53;;;;;;;116.80;45.20;;;;;;;;;;6269734;28;20046;-54
2023/03/03 04:02:54;;;;;;;116.43;46.33;;;;;;;;;;6277393;28;20147;-52
2023/03/03 04:05:55;;;;;;;124.78;50.60;;;;;;;;;;6291625;28;20052;-56
2023/03/03 04:08:56;;;;;;;127.93;49.95;;;;;;;;;;6272565;28;20044;-51
2023/03/03 04:11:56;;;;;;;119.72;49.85;;;;;;;;;;6269401;28;20056;-56
2023/03/03 04:14:57;;;;;;;123.93;49.55;;;;;;;;;;6268261;28;20447;-51
2023/03/03 04:17:58;;;;;;;128.13;50.17;;;;;;;;;;6271960;28;20148;-55
2023/03/03 04:20:58;;;;;;;118.60;49.60;;;;;;;;;;6270427;28;20139;-53
2023/03/03 04:23:59;;;;;;;124.95;49.92;;;;;;;;;;6270138;28;20061;-53
2023/03/03 04:27:00;;;;;;;121.43;51.58;;;;;;;;;;6268803;28;20040;-54
2023/03/03 04:30:01;;;;;;;118.10;48.20;;;;;;;;;;6271597;28;20056;-51
2023/03/03 04:33:02;;;;;;;127.05;50.30;;;;;;;;;;6278244;28;20049;-54
2023/03/03 04:36:03;;;;;;;117.57;50.85;;;;;;;;;;6273299;28;20973;-56
2023/03/03 04:39:04;;;;;;;118.60;46.75;;;;;;;;;;6294083;28;20563;-51
2023/03/03 04:42:04;;;;;;;121.93;48.63;;;;;;;;;;6284099;28;20063;-50
2023/03/03 04:45:06;;;;;;;115.03;46.88;;;;;;;;;;6282300;28;20415;-56
2023/03/03 04:48:06;;;;;;;110.90;46.78;;;;;;;;;;6286298;28;20045;-54
2023/03/03 04:51:07;;;;;;;112.57;45.42;;;;;;;;;;6287846;28;20573;-54
2023/03/03 04:54:07;;;;;;;117.07;48.90;;;;;;;;;;6282266;28;20048;-54
2023/03/03 04:57:08;;;;;;;115.00;46.20;;;;;;;;;;6282927;28;20087;-57
2023/03/03 05:00:12;;;;;;;117.55;47.42;;;;;;;;;;6285384;28;20041;-54
2023/03/03 05:03:12;;;;;;;116.25;47.03;;;;;;;;;;6288978;28;20452;-51
2023/03/03 05:06:13;;;;;;;117.97;47.85;;;;;;;;;;6293766;28;20064;-54
2023/03/03 05:09:13;;;;;;;113.95;45.30;;;;;;;;;;6278476;28;20048;-52
2023/03/03 05:12:14;;;;;;;114.20;47.88;;;;;;;;;;6272883;28;20488;-54
2023/03/03 05:15:15;;;;;;;116.25;46.47;;;;;;;;;;6272075;28;20041;-57
2023/03/03 05:18:18;;;;;;;112.82;47.20;;;;;;;;;;6272520;28;20076;-51
2023/03/03 05:21:19;;;;;;;115.50;47.15;;;;;;;;;;6272304;28;20128;-56
2023/03/03 05:24:20;;;;;;;120.00;48.30;;;;;;;;;;6280529;28;20115;-50
2023/03/03 05:27:20;;;;;;;136.68;53.78;;;;;;;;;;6273430;28;20048;-54
2023/03/03 05:30:21;;;;;;;129.13;55.70;;;;;;;;;;6271819;28;20051;-54
2023/03/03 05:33:22;;;;;;;129.40;51.78;;;;;;;;;;6271166;28;20506;-53
2023/03/03 05:36:23;;;;;;;122.55;48.42;;;;;;;;;;6270462;28;20059;-54
2023/03/03 05:39:24;;;;;;;118.78;49.20;;;;;;;;;;6270415;28;20045;-56
2023/03/03 05:42:24;;;;;;;141.52;55.38;;;;;;;;;;6273902;28;20464;-55
2023/03/03 05:45:25;;;;;;;142.02;58.40;;;;;;;;;;6282374;28;20452;-59
2023/03/03 05:48:26;;;;;;;142.85;57.50;;;;;;;;;;6279955;28;20049;-59
2023/03/03 05:51:27;;;;;;;141.48;57.42;;;;;;;;;;6292556;28;20045;-56
2023/03/03 05:54:27;;;;;;;140.07;56.97;;;;;;;;;;6279550;28;20403;-55
2023/03/03 05:57:28;;;;;;;145.98;59.78;;;;;;;;;;6269782;28;20111;-53
2023/03/03 06:00:28;;;;;;;143.07;57.60;;;;;;;;;;6270681;28;20037;-54
2023/03/03 06:03:30;;;;;;;132.55;54.03;;;;;;;;;;6280127;28;20064;-53
2023/03/03 06:06:31;;;;;;;130.35;55.15;;;;;;;;;;6268718;28;20404;-56
2023/03/03 06:09:32;;;;;;;128.20;52.83;;;;;;;;;;6271728;28;20051;-55
2023/03/03 06:12:33;;;;;;;133.70;55.70;;;;;;;;;;6271045;28;20059;-57
2023/03/03 06:15:34;;;;;;;132.75;55.75;;;;;;;;;;6267191;28;20056;-53
2023/03/03 06:18:34;;;;;;;135.43;55.05;;;;;;;;;;6269176;28;20047;-55
2023/03/03 06:21:35;;;;;;;137.80;55.92;;;;;;;;;;6271673;28;20407;-55
2023/03/03 06:24:35;;;;;;;129.90;55.22;;;;;;;;;;6271094;28;20499;-55
2023/03/03 06:27:36;;;;;;;138.57;56.45;;;;;;;;;;6267672;28;20049;-55
2023/03/03 06:30:36;;;;;;;138.35;56.80;;;;;;;;;;6274570;28;20052;-52
2023/03/03 06:33:37;;;;;;;137.90;54.75;;;;;;;;;;6273895;28;20076;-52
2023/03/03 06:36:38;;;;;;;130.50;54.30;;;;;;;;;;6275547;28;20044;-50
2023/03/03 06:39:39;;;;;;;137.70;56.28;;;;;;;;;;6292845;28;20135;-56
2023/03/03 06:42:39;;;;;;;136.65;55.50;;;;;;;;;;6293731;28;20044;-60
2023/03/03 06:45:40;;;;;;;132.77;56.15;;;;;;;;;;6287320;28;20045;-58
2023/03/03 06:48:41;;;;;;;126.70;54.58;;;;;;;;;;6291861;28;20408;-53
2023/03/03 06:51:44;;;;;;;137.30;56.03;;;;;;;;;;6280306;28;20068;-54
2023/03/03 06:54:44;;;;;;;130.10;53.72;;;;;;;;;;6271607;28;20479;-65
2023/03/03 06:57:45;;;;;;;134.05;56.38;;;;;;;;;;6269659;28;20041;-53
2023/03/03 07:00:55;;;;;;;131.27;53.08;;;;;;;;;;6267113;28;20635;-51
2023/03/03 07:03:56;;;;;;;134.00;53.55;;;;;;;;;;6271822;28;20445;-51
2023/03/03 07:06:58;;;;;;;127.32;53.95;;;;;;;;;;6268050;28;20044;-51
2023/03/03 07:09:59;;;;;;;137.13;53.53;;;;;;;;;;6269988;28;20048;-57
2023/03/03 07:13:15;;;;;;;140.43;54.60;;;;;;;;;;6268973;28;20053;-54
2023/03/03 07:16:18;;;;;;;134.80;54.03;;;;;;;;;;6269993;28;20036;-56
2023/03/03 07:19:22;;;;;;;;;;;;;;;;;;6268454;28;20056;-54
2023/03/03 07:22:29;;;;;;;123.55;49.78;;;;;;;;;;6269703;28;19928;-55
2023/03/03 07:25:32;;;;;;;128.52;50.38;;;;;;;;;;6267978;28;20070;-53
2023/03/03 07:28:33;;;;;;;133.77;51.78;;;;;;;;;;6268180;28;20041;-58
2023/03/03 07:31:36;;;;;;;129.55;54.00;;;;;;;;;;6268983;28;20099;-53
2023/03/03 07:34:42;;;;;;;129.68;52.90;;;;;;;;;;6270887;28;20045;-52
2023/03/03 07:37:43;;;;;;;131.90;53.38;;;;;;;;;;6266831;28;20444;-52
2023/03/03 07:40:50;;;;;;;128.10;53.72;;;;;;;;;;6280594;28;20044;-58
2023/03/03 07:43:58;;;;;;;128.00;53.05;;;;;;;;;;6287025;28;20061;-51
2023/03/03 07:47:17;;;;;;;132.27;52.80;;;;;;;;;;6270526;28;20071;-55
2023/03/03 07:50:20;;;;;;;129.43;51.75;;;;;;;;;;6271328;28;20094;-55
2023/03/03 07:53:26;;;;;;;135.65;50.78;;;;;;;;;;6272699;28;20094;-51
2023/03/03 07:56:34;;;;;;;128.23;49.83;;;;;;;;;;6270689;28;20443;-55
2023/03/03 07:59:36;;;;;;;134.60;49.85;;;;;;;;;;6267409;28;20041;-55
2023/03/03 08:02:40;;;;;;;143.68;52.50;;;;;;;;;;6265731;28;20115;-54
2023/03/03 08:05:42;;;;;;;139.23;53.42;;;;;;;;;;6270680;28;20052;-53
2023/03/03 08:08:44;;;;;;;148.20;54.65;;;;;;;;;;6272545;28;20471;-60
2023/03/03 08:11:54;;;;;;;162.30;58.85;;;;;;;;;;6267117;28;20138;-55
2023/03/03 08:14:57;;;;;;;162.07;58.70;;;;;;;;;;6269464;28;20136;-54
2023/03/03 08:18:00;;;;;;;166.77;60.88;;;;;;;;;;6266650;28;20045;-51
2023/03/03 08:21:33;;;;;;;155.75;57.55;;;;;;;;;;6289418;28;20517;-56
2023/03/03 08:24:33;;;;;;;156.73;55.58;;;;;;;;;;6277329;28;20052;-51
2023/03/03 08:27:34;;;;;;;166.60;57.20;;;;;;;;;;6287753;28;20113;-54
2023/03/03 08:30:35;;;;;;;156.43;55.10;;;;;;;;;;6289505;28;20556;-54
2023/03/03 08:33:35;;;;;;;145.32;53.20;;;;;;;;;;6280040;28;20044;-59
2023/03/03 08:36:36;;;;;;;148.60;50.63;;;;;;;;;;6277838;28;20151;-50
2023/03/03 08:39:37;;;;;;;136.68;48.85;;;;;;;;;;6289847;28;20438;-51
2023/03/03 08:42:37;;;;;;;128.30;44.95;;;;;;;;;;6287619;28;20105;-51
2023/03/03 08:45:38;;;;;;;107.20;38.83;;;;;;;;;;6267544;28;20061;-53
2023/03/03 08:48:39;;;;;;;131.98;45.72;;;;;;;;;;6275466;28;20065;-55
2023/03/03 08:51:41;;;;;;;123.43;44.63;;;;;;;;;;6270259;28;20491;-54
2023/03/03 08:54:42;;;;;;;113.35;41.17;;;;;;;;;;6268266;28;20492;-55
2023/03/03 08:57:43;;;;;;;116.95;40.90;;;;;;;;;;6268984;28;20048;-53
2023/03/03 09:00:44;;;;;;;115.90;39.53;;;;;;;;;;6269997;28;20604;-54
2023/03/03 09:03:45;;;;;;;115.85;40.40;;;;;;;;;;6269446;28;20052;-54
2023/03/03 09:06:46;;;;;;;117.18;41.25;;;;;;;;;;6270359;28;20056;-51
2023/03/03 09:09:47;;;;;;;105.00;32.97;;;;;;;;;;6272433;28;20127;-54
2023/03/03 09:12:48;;;;;;;88.38;30.55;;;;;;;;;;6273254;28;20554;-54
2023/03/03 09:15:49;;;;;;;88.32;28.42;;;;;;;;;;6273374;28;20044;-55
2023/03/03 09:18:50;;;;;;;80.43;27.42;;;;;;;;;;6275214;28;20075;-54
2023/03/03 09:21:53;;;;;;;71.10;25.73;;;;;;;;;;6290308;28;20298;-51
2023/03/03 09:24:57;;;;;;;83.40;26.92;;;;;;;;;;6276859;28;20139;-54
2023/03/03 09:27:58;;;;;;;77.95;26.30;;;;;;;;;;6274144;28;20155;-51
2023/03/03 09:31:01;;;;;;;77.50;24.98;;;;;;;;;;6276117;28;20503;-53
2023/03/03 09:34:21;;;;;;;75.68;26.27;;;;;;;;;;6275763;28;20084;-52
2023/03/03 09:37:25;;;;;;;79.65;25.52;;;;;;;;;;6278847;28;20041;-50
2023/03/03 09:40:43;;;;;;;85.07;28.17;;;;;;;;;;6274211;28;20048;-49
2023/03/03 09:44:03;;;;;;;72.72;23.63;;;;;;;;;;6272475;28;20139;-52
2023/03/03 09:47:25;;;;;;;63.17;21.83;;;;;;;;;;6271034;28;20325;-55
2023/03/03 09:50:35;;;;;;;68.47;22.92;;;;;;;;;;6272709;28;20074;-53
2023/03/03 09:54:03;;;;;;;66.30;21.33;;;;;;;;;;6272865;28;20063;-52
2023/03/03 09:57:23;;;;;;;66.47;21.40;;;;;;;;;;6270382;28;20053;-50
2023/03/03 10:00:44;;;;;;;73.32;22.48;;;;;;;;;;6271235;28;20077;-50
2023/03/03 10:04:23;;;;;;;74.90;23.10;;;;;;;;;;6273729;28;20475;-53
2023/03/03 10:07:32;;;;;;;85.00;23.83;;;;;;;;;;6269831;28;20135;-54
2023/03/03 10:10:49;;;;;;;77.10;24.98;;;;;;;;;;6270340;28;20460;-51
2023/03/03 10:14:04;;;;;;;83.43;26.15;;;;;;;;;;6269949;28;20056;-52
2023/03/03 10:17:26;;;;;;;77.28;25.33;;;;;;;;;;6268587;28;20049;-52
2023/03/03 10:20:43;;;;;;;78.25;24.38;;;;;;;;;;6270726;28;20080;-50
2023/03/03 10:23:55;;;;;;;78.32;24.65;;;;;;;;;;6275907;28;20510;-52
2023/03/03 10:27:24;;;;;;;74.47;24.27;;;;;;;;;;6269177;28;20044;-55
2023/03/03 10:30:34;;;;;;;72.95;22.30;;;;;;;;;;6268716;28;20079;-53
2023/03/03 10:33:35;;;;;;;80.35;25.30;;;;;;;;;;6271586;28;20053;-54
2023/03/03 10:36:50;;;;;;;79.15;25.98;;;;;;;;;;6268219;28;20099;-53
2023/03/03 10:40:18;;;;;;;77.53;25.90;;;;;;;;;;6269574;28;20731;-55
2023/03/03 10:43:51;;;;;;;73.05;23.02;;;;;;;;;;6280042;28;20049;-55
2023/03/03 10:47:32;;;;;;;75.78;21.58;;;;;;;;;;6271369;28;20040;-56
2023/03/03 10:50:43;;;;;;;72.05;23.92;;;;;;;;;;6270302;28;20135;-51
2023/03/03 10:54:01;;;;;;;71.85;24.00;;;;;;;;;;6270810;28;20657;-50
2023/03/03 10:57:18;;;;;;;71.15;22.88;;;;;;;;;;6269184;28;20142;-54
2023/03/03 11:00:30;;;;;;;72.22;24.00;;;;;;;;;;6270116;28;20069;-55
2023/03/03 11:03:43;;;;;;;79.97;24.50;;;;;;;;;;6270989;28;20071;-53
2023/03/03 11:07:11;;;;;;;83.28;24.45;;;;;;;;;;6269658;28;20071;-52
2023/03/03 11:10:30;;;;;;;79.13;25.45;;;;;;;;;;6270911;28;20063;-54
2023/03/03 11:14:05;;;;;;;84.65;26.45;;;;;;;;;;6270846;28;20549;-53
2023/03/03 11:17:23;;;;;;;77.43;24.77;;;;;;;;;;6270350;28;20045;-57
2023/03/03 11:20:32;;;;;;;73.43;24.10;;;;;;;;;;6272705;28;20040;-52
2023/03/03 11:23:53;;;;;;;83.80;25.35;;;;;;;;;;6269974;28;20051;-51
2023/03/03 11:26:53;;;;;;;68.30;23.02;;;;;;;;;;6270147;28;20033;-56
2023/03/03 11:29:57;;;;;;;71.95;24.13;;;;;;;;;;6271522;28;20472;-55
2023/03/03 11:33:19;;;;;;;69.53;23.33;;;;;;;;;;6268108;28;20033;-50
2023/03/03 11:36:36;;;;;;;72.97;23.00;;;;;;;;;;6275417;28;20068;-50
2023/03/03 11:39:38;;;;;;;71.78;24.05;;;;;;;;;;6270432;28;20563;-54
2023/03/03 11:42:53;;;;;;;66.60;22.23;;;;;;;;;;6271700;28;20044;-51
2023/03/03 11:46:03;;;;;;;64.80;21.83;;;;;;;;;;6268336;28;20164;-53
2023/03/03 11:49:35;;;;;;;70.90;20.95;;;;;;;;;;6269406;28;20049;-56
2023/03/03 11:53:03;;;;;;;62.28;19.98;;;;;;;;;;6271597;28;20080;-54
2023/03/03 11:56:19;;;;;;;61.47;19.13;;;;;;;;;;6268138;28;20037;-58
2023/03/03 11:59:29;;;;;;;58.75;19.58;;;;;;;;;;6271031;28;20158;-54
2023/03/03 12:02:50;;;;;;;57.83;19.77;;;;;;;;;;6269986;28;20611;-53
2023/03/03 12:06:18;;;;;;;66.05;18.77;;;;;;;;;;6266040;28;20040;-53
2023/03/03 12:09:44;;;;;;;60.30;19.73;;;;;;;;;;6271880;28;20068;-51
2023/03/03 12:12:58;;;;;;;59.97;19.17;;;;;;;;;;6269887;28;20048;-55
2023/03/03 12:16:07;;;;;;;60.45;19.65;;;;;;;;;;6270955;28;20051;-56
2023/03/03 12:19:21;;;;;;;56.17;18.17;;;;;;;;;;6268505;28;20388;-54
2023/03/03 12:22:40;;;;;;;56.88;18.50;;;;;;;;;;6268627;28;20333;-54
2023/03/03 12:25:44;;;;;;;60.92;19.48;;;;;;;;;;6270394;28;20559;-51
2023/03/03 12:29:01;;;;;;;63.15;20.92;;;;;;;;;;6270655;28;20412;-51
2023/03/03 12:32:20;;;;;;;64.28;22.50;;;;;;;;;;6267167;28;20134;-53
2023/03/03 12:35:35;;;;;;;70.03;21.77;;;;;;;;;;6271541;28;20045;-53
2023/03/03 12:38:57;;;;;;;68.15;22.17;;;;;;;;;;6271588;28;20648;-55
2023/03/03 12:42:19;;;;;;;70.50;21.50;;;;;;;;;;6269381;28;20059;-54
2023/03/03 12:45:41;;;;;;;67.78;19.83;;;;;;;;;;6268924;28;20385;-57
2023/03/03 12:48:43;;;;;;;66.45;21.13;;;;;;;;;;6272156;28;20049;-52
2023/03/03 12:52:13;;;;;;;63.30;21.23;;;;;;;;;;6274010;28;20075;-55
2023/03/03 12:55:32;;;;;;;61.47;20.40;;;;;;;;;;6276287;28;20045;-52
2023/03/03 12:58:55;;;;;;;55.95;20.15;;;;;;;;;;6271181;28;20052;-58
2023/03/03 13:02:21;;;;;;;62.67;20.65;;;;;;;;;;6270846;28;20067;-55
2023/03/03 13:05:48;;;;;;;62.70;19.88;;;;;;;;;;6271377;28;20105;-54
2023/03/03 13:09:15;;;;;;;56.28;19.58;;;;;;;;;;6274810;28;20050;-54
2023/03/03 13:12:38;;;;;;;59.15;19.92;;;;;;;;;;6274800;28;20052;-52
2023/03/03 13:15:49;;;;;;;62.20;20.23;;;;;;;;;;6281726;28;20044;-50
2023/03/03 13:18:58;;;;;;;61.97;20.20;;;;;;;;;;6272541;28;20771;-56
2023/03/03 13:22:44;;;;;;;57.03;18.23;;;;;;;;;;6274689;28;20060;-53
2023/03/03 13:25:54;;;;;;;54.25;18.27;;;;;;;;;;6274629;28;20053;-55
2023/03/03 13:29:03;;;;;;;53.10;18.48;;;;;;;;;;6269631;28;20136;-56
2023/03/03 13:32:14;;;;;;;57.47;19.38;;;;;;;;;;6269469;28;20053;-57
2023/03/03 13:35:49;;;;;;;53.05;19.73;;;;;;;;;;6273000;28;20259;-51
2023/03/03 13:38:55;;;;;;;54.10;18.02;;;;;;;;;;6279764;28;20056;-52
2023/03/03 13:42:01;;;;;;;53.42;19.00;;;;;;;;;;6274379;28;20053;-53
2023/03/03 13:45:15;;;;;;;59.15;19.02;;;;;;;;;;6270789;28;20049;-51
2023/03/03 13:48:31;;;;;;;58.30;19.30;;;;;;;;;;6271345;28;20049;-53
2023/03/03 13:51:37;;;;;;;54.65;19.08;;;;;;;;;;6269978;28;20102;-58
2023/03/03 13:55:05;;;;;;;57.20;19.90;;;;;;;;;;6274926;28;20045;-50
2023/03/03 13:58:25;;;;;;;53.22;18.73;;;;;;;;;;6267369;28;20053;-53
2023/03/03 14:01:48;;;;;;;58.50;19.17;;;;;;;;;;6269751;28;20063;-52
2023/03/03 14:04:53;;;;;;;53.28;18.63;;;;;;;;;;6271746;28;20131;-50
2023/03/03 14:07:59;;;;;;;54.00;19.63;;;;;;;;;;6268627;28;20450;-56
2023/03/03 14:11:21;;;;;;;62.90;20.10;;;;;;;;;;6269999;28;20102;-55
2023/03/03 14:14:49;;;;;;;47.70;18.33;;;;;;;;;;6272459;28;20053;-55
2023/03/03 14:18:20;;;;;;;50.95;17.67;;;;;;;;;;6269424;28;20594;-57
2023/03/03 14:21:34;;;;;;;51.60;16.88;;;;;;;;;;6270875;28;20763;-50
2023/03/03 14:25:02;;;;;;;47.28;17.58;;;;;;;;;;6269820;28;20055;-55
2023/03/03 14:28:13;;;;;;;50.78;17.92;;;;;;;;;;6268526;28;20041;-59
2023/03/03 14:31:22;;;;;;;47.38;17.05;;;;;;;;;;6270339;28;20483;-50
2023/03/03 14:34:22;;;;;;;54.42;19.90;;;;;;;;;;6271489;28;20480;-59
2023/03/03 14:37:45;;;;;;;50.78;17.63;;;;;;;;;;6267850;28;20052;-52
2023/03/03 14:40:46;;;;;;;49.92;17.85;;;;;;;;;;6272967;28;20060;-50
2023/03/03 14:43:58;;;;;;;56.92;19.80;;;;;;;;;;6275850;28;20054;-52
2023/03/03 14:47:01;;;;;;;62.23;21.33;;;;;;;;;;6270567;28;20053;-52
2023/03/03 14:50:33;;;;;;;56.95;20.58;;;;;;;;;;6266366;28;20055;-52
2023/03/03 14:53:37;;;;;;;54.90;19.70;;;;;;;;;;6274509;28;20059;-53
2023/03/03 14:56:51;;;;;;;62.83;19.88;;;;;;;;;;6275095;28;20130;-51
2023/03/03 14:59:57;;;;;;;61.50;20.50;;;;;;;;;;6276671;28;20048;-57
2023/03/03 15:02:57;;;;;;;57.90;20.15;;;;;;;;;;6277647;28;20064;-53
2023/03/03 15:05:58;;;;;;;60.35;21.58;;;;;;;;;;6275110;28;20051;-52
2023/03/03 15:09:25;;;;;;;60.70;19.50;;;;;;;;;;6268253;28;20056;-54
2023/03/03 15:12:31;;;;;;;62.15;20.77;;;;;;;;;;6267293;28;20052;-52
2023/03/03 15:15:31;;;;;;;56.28;21.65;;;;;;;;;;6269997;28;20125;-55
2023/03/03 15:18:33;;;;;;;61.28;20.35;;;;;;;;;;6264488;28;20562;-57
2023/03/03 15:21:39;;;;;;;55.90;21.10;;;;;;;;;;6269235;28;20741;-54
2023/03/03 15:25:04;;;;;;;60.83;22.63;;;;;;;;;;6267547;28;20052;-55
2023/03/03 15:28:26;;;;;;;49.70;17.83;;;;;;;;;;6269848;28;20052;-56
2023/03/03 15:31:50;;;;;;;62.05;19.58;;;;;;;;;;6269086;28;20117;-53
2023/03/03 15:35:23;;;;;;;47.92;17.67;;;;;;;;;;6269010;28;20056;-53
2023/03/03 15:38:53;;;;;;;54.03;18.45;;;;;;;;;;6267404;28;20086;-53
2023/03/03 15:42:05;;;;;;;50.40;19.13;;;;;;;;;;6269214;28;20048;-51
2023/03/03 15:45:09;;;;;;;;;;;;;;;;;;6272645;28;20049;-50
2023/03/03 15:48:27;;;;;;;56.03;18.75;;;;;;;;;;6278271;28;20306;-52
2023/03/03 15:52:00;;;;;;;54.30;19.48;;;;;;;;;;6280186;28;20048;-49
2023/03/03 15:55:15;;;;;;;56.08;19.27;;;;;;;;;;6279750;28;20051;-50
2023/03/03 15:58:45;;;;;;;47.88;18.65;;;;;;;;;;6280202;28;20731;-52
2023/03/03 16:01:59;;;;;;;47.17;18.15;;;;;;;;;;6271821;28;20135;-51
2023/03/03 16:05:17;;;;;;;55.58;19.17;;;;;;;;;;6279333;28;20045;-53
2023/03/03 16:08:39;;;;;;;51.70;18.02;;;;;;;;;;6278193;28;20057;-54
2023/03/03 16:11:48;;;;;;;50.67;20.13;;;;;;;;;;6281155;28;20063;-52
2023/03/03 16:15:27;;;;;;;56.30;19.73;;;;;;;;;;6281252;28;20048;-53
2023/03/03 16:18:46;;;;;;;54.38;19.70;;;;;;;;;;6279157;28;20339;-50
2023/03/03 16:22:02;;;;;;;64.82;21.38;;;;;;;;;;6282604;28;20044;-55
2023/03/03 16:25:19;;;;;;;64.38;21.88;;;;;;;;;;6284884;28;20057;-55
2023/03/03 16:28:59;;;;;;;61.25;21.27;;;;;;;;;;6283920;28;20124;-52
2023/03/03 16:32:09;;;;;;;57.88;19.70;;;;;;;;;;6286540;28;20055;-48
2023/03/03 16:35:13;;;;;;;55.35;20.77;;;;;;;;;;6285525;28;20056;-54
2023/03/03 16:38:39;;;;;;;55.88;20.00;;;;;;;;;;6283615;28;20048;-62
2023/03/03 16:41:54;;;;;;;56.10;20.23;;;;;;;;;;6285033;28;20615;-50
2023/03/03 16:45:30;;;;;;;62.40;20.15;;;;;;;;;;6281862;28;20048;-53
2023/03/03 16:48:41;;;;;;;53.88;18.95;;;;;;;;;;6233637;28;20554;-55
2023/03/03 16:51:56;;;;;;;59.00;20.25;;;;;;;;;;6272365;28;20044;-52
2023/03/03 16:55:16;;;;;;;49.70;18.00;;;;;;;;;;6278214;28;20052;-51
2023/03/03 16:58:36;;;;;;;56.20;20.58;;;;;;;;;;6279728;28;20040;-54
2023/03/03 17:02:12;;;;;;;54.13;19.40;;;;;;;;;;6278794;28;20095;-54
2023/03/03 17:05:23;;;;;;;57.35;19.58;;;;;;;;;;6273564;28;20103;-50
2023/03/03 17:08:34;;;;;;;54.15;18.50;;;;;;;;;;6271104;28;20079;-52
2023/03/03 17:11:42;;;;;;;54.15;19.73;;;;;;;;;;6274291;28;20059;-53
2023/03/03 17:14:42;;;;;;;53.83;20.08;;;;;;;;;;6273915;28;20602;-53
2023/03/03 17:17:58;;;;;;;59.35;20.45;;;;;;;;;;6271808;28;20052;-55
2023/03/03 17:21:02;;;;;;;59.42;20.65;;;;;;;;;;6273073;28;20194;-53
2023/03/03 17:24:15;;;;;;;56.95;20.42;;;;;;;;;;6274377;28;20816;-55
2023/03/03 17:27:31;;;;;;;59.28;20.42;;;;;;;;;;6273136;28;20094;-53
2023/03/03 17:31:10;;;;;;;59.75;21.00;;;;;;;;;;6271408;28;20089;-52
2023/03/03 17:34:22;;;;;;;66.93;21.65;;;;;;;;;;6264288;28;20056;-54
2023/03/03 17:37:49;;;;;;;65.22;22.33;;;;;;;;;;6277492;28;20067;-53
2023/03/03 17:40:57;;;;;;;95.53;33.70;;;;;;;;;;6267554;28;20139;-55
2023/03/03 17:44:18;;;;;;;71.20;24.27;;;;;;;;;;6274509;28;20052;-54
2023/03/03 17:47:56;;;;;;;68.20;22.80;;;;;;;;;;6274914;28;20172;-53
2023/03/03 17:51:00;;;;;;;62.67;22.42;;;;;;;;;;6272760;28;20757;-51
2023/03/03 17:54:22;;;;;;;68.70;22.83;;;;;;;;;;6272634;28;20383;-51
2023/03/03 17:57:32;;;;;;;71.25;22.85;;;;;;;;;;6281412;28;20485;-49
2023/03/03 18:00:58;;;;;;;85.43;27.42;;;;;;;;;;6275894;28;20044;-49
2023/03/03 18:04:04;;;;;;;76.65;24.40;;;;;;;;;;6280780;28;20078;-53
2023/03/03 18:07:27;;;;;;;69.00;22.63;;;;;;;;;;6282221;28;20442;-51
2023/03/03 18:10:36;;;;;;;75.47;24.25;;;;;;;;;;6277826;28;20064;-48
2023/03/03 18:13:55;;;;;;;73.32;23.83;;;;;;;;;;6280796;28;20055;-51
2023/03/03 18:17:22;;;;;;;77.72;24.23;;;;;;;;;;6283322;28;20057;-52